Terminal Aerodrome Forecast
Issued by NWS

Current Version | Previous Version | Graphics & Text | Print | Product List | Glossary On
Versions: 1 2 3 4 5 6 7 8 9 10 11 12 13 14 15 16 17 18 19
000
FTUS41 KPBZ 240525
TAFHLG
TAF
KHLG 240525Z 2406/2506 07004KT P6SM BKN250
     FM241300 08008KT P6SM SCT250
     FM241500 09011KT P6SM BKN140=

USA.gov is the U.S. government's official web portal to all federal, state and local government web resources and services.